Latest Weather Observations for Palmerville

IDQ60801

Issued at 8:02 am EST Saturday 6 February 2016 (issued every 30 minutes, with the page automatically refreshed every 10 minutes)

About weather observations | Map of weather stations | Latest weather observations for QLD | Other Formats
Station Details ID: 028004 Name: PALMERVILLE Lat: -16.00 Lon: 144.08 Height: 203.8 m
Data from the previous 72 hours. | See also: Recent months at Palmerville
Date/Time
EST
Temp
°C
App
Temp
°C
Dew
Point
Rel
Hum
%
Delta-T
°C
Wind Press
QNH
hPa
Press
MSL
hPa
Rain
since 9 am
mm
Dir
 
Spd
km/h
Gust
km/h
Spd
kts
Gust
kts
06/08:00am 27.1 33.3 26.4 96 0.5 NW 6 11 3 6 1006.0 1004.6 14.4
06/07:30am 26.6 33.3 26.6 100 0.0 NW 4 6 2 3 1005.7 1004.3 14.4
06/07:00am 26.2 33.4 26.2 100 0.0 CALM 0 0 0 0 1005.3 1003.9 14.4
06/06:30am 25.9 32.9 25.9 100 0.0 CALM 0 0 0 0 1005.0 1003.6 14.4
06/06:00am 25.7 32.6 25.7 100 0.0 CALM 0 0 0 0 1004.7 1003.3 14.4
06/05:30am 25.5 32.3 25.5 100 0.0 CALM 0 0 0 0 1004.2 1002.7 14.4
06/05:00am 25.4 32.1 25.4 100 0.0 CALM 0 0 0 0 1003.9 1002.4 14.4
06/04:30am 25.6 32.4 25.6 100 0.0 CALM 0 0 0 0 1003.7 1002.2 14.4
06/04:00am 25.7 32.6 25.7 100 0.0 CALM 0 0 0 0 1003.4 1001.9 14.2
06/03:30am 25.7 32.6 25.7 100 0.0 CALM 0 0 0 0 1003.5 1002.0 14.2
06/03:00am 25.9 32.9 25.9 100 0.0 CALM 0 0 0 0 1003.6 1002.1 14.2
06/02:30am 25.9 32.9 25.9 100 0.0 CALM 0 0 0 0 1003.7 1002.2 14.2
06/02:00am 26.0 32.3 26.0 100 0.0 W 4 7 2 4 1003.8 1002.3 14.2
06/01:30am 26.2 33.4 26.2 100 0.0 CALM 0 0 0 0 1004.0 1002.5 14.2
06/01:00am 26.2 32.7 26.2 100 0.0 WNW 4 7 2 4 1004.4 1002.9 14.2
06/12:30am 26.2 33.4 26.2 100 0.0 CALM 0 0 0 0 1004.6 1003.2 14.2
06/12:00am 26.2 33.0 26.2 100 0.0 ENE 2 6 1 3 1005.0 1003.6 14.2
 
Date/Time
EST
Temp
°C
App
Temp
°C
Dew
Point
Rel
Hum
%
Delta-T
°C
Wind Press
QNH
hPa
Press
MSL
hPa
Rain
since 9 am
mm
Dir
 
Spd
km/h
Gust
km/h
Spd
kts
Gust
kts
05/11:30pm 26.2 33.0 26.2 100 0.0 NNW 2 6 1 3 1005.5 1004.1 14.2
05/11:00pm 26.1 32.5 26.1 100 0.0 N 4 7 2 4 1005.7 1004.3 14.0
05/10:30pm 26.0 31.4 26.0 100 0.0 E 9 13 5 7 1005.6 1004.2 14.0
05/10:00pm 26.1 33.3 26.1 100 0.0 CALM 0 6 0 3 1005.9 1004.5 14.0
05/09:30pm 26.1 33.3 26.1 100 0.0 CALM 0 0 0 0 1005.8 1004.4 14.0
05/09:00pm 25.9 32.9 25.9 100 0.0 CALM 0 4 0 2 1005.7 1004.3 14.0
05/08:30pm 26.0 32.3 26.0 100 0.0 N 4 6 2 3 1005.7 1004.3 14.0
05/08:00pm 25.8 32.4 25.8 100 0.0 NW 2 7 1 4 1005.2 1003.8 14.0
05/07:30pm 25.6 32.4 25.6 100 0.0 CALM 0 0 0 0 1004.5 1003.0 14.0
05/07:00pm 25.5 31.5 25.5 100 0.0 SE 4 7 2 4 1004.1 1002.6 14.0
05/06:30pm 25.5 30.6 25.5 100 0.0 SE 9 15 5 8 1003.9 1002.4 14.0
05/06:00pm 26.0 31.6 25.8 99 0.1 ESE 7 15 4 8 1003.8 1002.3 5.4
05/05:30pm 30.1 35.8 25.6 77 3.2 NNE 6 9 3 5 1002.4 1001.0 0.0
05/05:00pm 30.0 34.8 25.1 75 3.5 NNE 9 15 5 8 1002.1 1000.7 0.0
05/04:30pm 30.3 33.9 24.4 70 4.1 NNW 13 20 7 11 1002.1 1000.7 0.0
05/04:00pm 31.8 36.9 24.9 67 4.9 NNW 7 13 4 7 1001.7 1000.3 0.0
05/03:30pm 31.8 36.4 24.1 63 5.4 NW 7 13 4 7 1002.0 1000.6 0.0
05/03:00pm 31.5 36.0 24.6 67 4.9 WNW 9 13 5 7 1002.4 1001.0 0.0
05/02:30pm 31.5 36.6 24.9 68 4.7 NW 7 13 4 7 1002.4 1001.0 0.0
05/02:00pm 31.3 35.9 24.7 68 4.7 NW 9 13 5 7 1002.8 1001.3 0.0
05/01:30pm 31.0 35.5 24.6 68 4.5 WNW 9 15 5 8 1003.2 1001.7 0.0
05/01:00pm 30.7 35.3 24.8 71 4.2 W 9 17 5 9 1003.6 1002.1 0.0
05/12:30pm 29.8 34.7 25.8 79 2.9 WSW 11 15 6 8 1003.9 1002.4 0.0
05/12:00pm 30.6 34.5 24.3 69 4.4 WNW 11 19 6 10 1004.5 1003.0 0.0
05/11:30am 31.4 36.6 25.7 71 4.1 WNW 9 17 5 9 1005.1 1003.7 0.0
05/11:00am 29.8 34.2 24.4 73 3.8 NNW 9 17 5 9 1005.6 1004.2 0.0
05/10:30am 29.5 34.2 25.0 77 3.2 NNW 9 13 5 7 1005.9 1004.5 0.0
05/10:00am 28.8 33.8 24.8 79 2.8 NNW 7 13 4 7 1006.0 1004.6 0.0
05/09:30am 28.4 33.0 24.8 81 2.5 NW 9 13 5 7 1006.3 1004.9 0.0
05/09:00am 28.1 33.0 25.3 85 2.0 NW 9 15 5 8 1006.0 1004.6 8.8
05/08:30am 27.7 32.9 25.1 86 1.8 NNW 7 11 4 6 1005.8 1004.4 8.8
05/08:00am 27.4 33.2 25.8 91 1.1 N 6 9 3 5 1005.8 1004.4 8.8
05/07:30am 26.9 34.0 26.0 95 0.6 CALM 0 0 0 0 1005.5 1004.1 8.8
05/07:00am 26.4 33.0 26.4 100 0.0 N 4 7 2 4 1005.3 1003.9 8.8
05/06:30am 26.2 33.4 26.2 100 0.0 CALM 0 0 0 0 1005.3 1003.9 8.8
05/06:00am 25.9 32.9 25.9 100 0.0 CALM 0 0 0 0 1004.5 1003.0 8.8
05/05:30am 25.8 32.8 25.8 100 0.0 CALM 0 0 0 0 1004.0 1002.5 8.8
05/05:00am 25.9 32.9 25.9 100 0.0 CALM 0 0 0 0 1003.9 1002.4 8.8
05/04:30am 26.1 33.3 26.1 100 0.0 CALM 0 0 0 0 1004.4 1002.9 8.8
05/04:00am 26.1 32.9 25.6 97 0.4 CALM 0 0 0 0 1004.3 1002.8 8.8
05/03:30am 26.3 33.5 26.1 99 0.1 CALM 0 0 0 0 1004.3 1002.8 8.8
05/03:00am 26.4 32.8 26.1 98 0.2 WSW 4 7 2 4 1004.4 1002.9 8.8
05/02:30am 26.2 33.0 25.5 96 0.5 CALM 0 6 0 3 1004.2 1002.7 8.8
05/02:00am 26.4 32.7 25.4 94 0.7 W 2 7 1 4 1004.5 1003.0 8.8
05/01:30am 26.6 32.9 25.4 93 0.8 NNW 2 6 1 3 1005.0 1003.6 8.8
05/01:00am 26.9 33.4 25.7 93 0.9 NNW 2 7 1 4 1005.4 1004.0 8.8
05/12:30am 27.1 34.9 27.1 100 0.0 CALM 0 6 0 3 1005.7 1004.3 8.6
05/12:00am 27.1 34.9 27.1 100 0.0 CALM 0 0 0 0 1006.1 1004.7 8.6
 
Date/Time
EST
Temp
°C
App
Temp
°C
Dew
Point
Rel
Hum
%
Delta-T
°C
Wind Press
QNH
hPa
Press
MSL
hPa
Rain
since 9 am
mm
Dir
 
Spd
km/h
Gust
km/h
Spd
kts
Gust
kts
04/11:30pm 27.1 34.9 27.1 100 0.0 CALM 0 0 0 0 1006.4 1005.0 8.6
04/11:00pm 27.0 34.4 26.5 97 0.4 CALM 0 0 0 0 1006.5 1005.1 8.6
04/10:30pm 27.0 34.1 26.0 94 0.7 CALM 0 0 0 0 1006.5 1005.1 8.6
04/10:00pm 27.7 33.1 25.5 88 1.6 NNW 7 11 4 6 1006.4 1005.0 7.2
04/09:30pm 28.2 33.5 25.2 84 2.1 N 7 13 4 7 1006.0 1004.6 7.2
04/09:00pm 27.9 34.8 26.3 91 1.1 NE 2 7 1 4 1005.9 1004.5 7.2
04/08:30pm 28.0 34.1 26.2 90 1.3 NE 6 7 3 4 1005.8 1004.4 7.2
04/08:00pm 28.3 36.2 27.2 94 0.8 CALM 0 0 0 0 1005.8 1004.4 7.2
04/07:30pm 28.2 35.8 26.8 92 1.0 CALM 0 0 0 0 1005.2 1003.8 7.2
04/07:00pm 28.8 36.4 26.8 89 1.4 CALM 0 0 0 0 1005.2 1003.8 7.2
04/06:30pm 29.2 36.8 26.8 87 1.7 CALM 0 0 0 0 1004.9 1003.5 7.0
04/06:00pm 29.2 35.3 26.2 84 2.2 ENE 6 7 3 4 1004.7 1003.3 7.0
04/05:30pm 29.3 35.1 25.7 81 2.6 E 6 9 3 5 1004.3 1002.8 7.0
04/05:00pm 29.2 35.4 25.8 82 2.4 E 4 6 2 3 1004.7 1003.3 7.0
04/04:30pm 28.5 33.7 25.1 82 2.4 E 7 11 4 6 1004.5 1003.0 7.0
04/04:00pm 27.9 32.8 24.7 83 2.3 E 7 11 4 6 1004.9 1003.5 7.0
04/03:30pm 27.4 32.8 25.2 88 1.6 E 6 7 3 4 1005.0 1003.6 7.0
04/03:00pm 26.5 31.1 24.7 90 1.3 E 9 13 5 7 1005.1 1003.7 7.0
04/02:30pm 25.7 28.6 23.2 86 1.7 W 13 22 7 12 1005.6 1004.2 6.8
04/02:14pm 28.9 31.0 22.4 68 4.4 N 15 41 8 22 1005.6 1004.2 0.6
04/02:00pm 32.7 37.4 25.0 64 5.5 NE 9 13 5 7 1005.2 1003.8 0.6
04/01:30pm 32.5 36.8 23.7 59 6.2 NW 7 13 4 7 1005.8 1004.4 0.6
04/01:00pm 31.6 36.0 24.5 66 5.0 WNW 9 19 5 10 1006.3 1004.9 0.6
04/12:30pm 30.0 35.8 26.0 79 2.9 SW 7 11 4 6 1006.8 1005.4 0.6
04/12:00pm 31.2 35.0 24.1 66 5.0 NW 11 20 6 11 1007.1 1005.7 0.0
04/11:30am 31.2 35.0 24.1 66 5.0 NW 11 19 6 10 1007.4 1006.0 0.0
04/11:00am 29.8 33.3 24.2 72 3.9 NW 13 20 7 11 1008.0 1006.5 0.0
04/10:30am 31.1 35.7 25.4 71 4.1 NW 11 19 6 10 1008.1 1006.6 0.0
04/10:00am 29.7 33.3 24.3 73 3.8 WNW 13 20 7 11 1008.3 1006.8 0.0
04/09:30am 29.4 33.7 24.9 77 3.2 NW 11 17 6 9 1008.6 1007.1 0.0
04/09:00am 28.9 33.6 24.9 79 2.8 NW 9 13 5 7 1008.7 1007.2 0.0
04/08:30am 28.1 33.5 25.1 84 2.1 NW 6 11 3 6 1008.6 1007.1 0.0
04/08:00am 27.5 33.4 25.3 88 1.6 NW 4 11 2 6 1008.7 1007.2 0.0
04/07:30am 26.9 34.1 26.2 96 0.5 CALM 0 0 0 0 1008.6 1007.1 0.0
04/07:00am 26.2 33.4 26.2 100 0.0 CALM 0 0 0 0 1008.3 1006.8 0.0
04/06:30am 25.7 31.5 25.7 100 0.0 E 6 7 3 4 1008.3 1006.8 0.0
04/06:00am 25.7 32.6 25.7 100 0.0 CALM 0 0 0 0 1007.9 1006.4 0.0
04/05:30am 25.8 32.6 25.6 99 0.1 CALM 0 0 0 0 1007.5 1006.1 0.0
04/05:00am 25.8 32.6 25.6 99 0.1 CALM 0 0 0 0 1007.2 1005.8 0.0
04/04:30am 25.9 32.6 25.4 97 0.4 CALM 0 0 0 0 1007.0 1005.6 0.0
04/04:00am 25.9 32.6 25.4 97 0.4 CALM 0 0 0 0 1007.1 1005.7 0.0
04/03:30am 26.0 32.5 25.1 95 0.6 CALM 0 0 0 0 1007.2 1005.8 0.0
04/03:00am 26.1 32.6 25.1 94 0.7 CALM 0 0 0 0 1007.2 1005.8 0.0
04/02:30am 26.1 32.4 24.7 92 1.0 CALM 0 0 0 0 1007.3 1005.9 0.0
04/02:00am 26.4 32.5 24.4 89 1.4 CALM 0 0 0 0 1007.4 1006.0 0.0
04/01:30am 26.5 32.5 24.3 88 1.5 CALM 0 0 0 0 1007.5 1006.1 0.0
04/01:00am 26.8 32.5 23.7 83 2.1 CALM 0 0 0 0 1008.0 1006.5 0.0
04/12:30am 27.2 32.9 23.7 81 2.4 CALM 0 2 0 1 1008.5 1007.0 0.0
04/12:00am 27.3 31.8 23.7 81 2.5 SW 6 9 3 5 1008.8 1007.3 0.0
 
Date/Time
EST
Temp
°C
App
Temp
°C
Dew
Point
Rel
Hum
%
Delta-T
°C
Wind Press
QNH
hPa
Press
MSL
hPa
Rain
since 9 am
mm
Dir
 
Spd
km/h
Gust
km/h
Spd
kts
Gust
kts
03/11:30pm 27.4 33.1 23.8 81 2.5 CALM 0 4 0 2 1009.1 1007.7 0.0
03/11:00pm 27.5 33.1 23.5 79 2.8 CALM 0 0 0 0 1009.4 1008.0 0.0
03/10:30pm 27.5 32.9 23.3 78 2.9 CALM 0 0 0 0 1009.4 1008.0 0.0
03/10:00pm 27.7 31.8 23.3 77 3.0 SSW 7 9 4 5 1009.2 1007.8 0.0
03/09:30pm 27.8 32.1 23.6 78 2.9 WNW 7 9 4 5 1008.9 1007.4 0.0
03/09:00pm 28.3 32.0 23.2 74 3.5 SW 9 15 5 8 1008.2 1006.7 0.0
03/08:30pm 28.8 31.9 23.5 73 3.7 W 13 19 7 10 1008.0 1006.5 0.0
03/08:00pm 30.1 32.7 23.3 67 4.7 WSW 15 30 8 16 1007.2 1005.8 0.0
03/07:30pm 31.2 35.2 23.8 64 5.2 WNW 9 13 5 7 1006.6 1005.2 0.0
03/07:00pm 31.2 35.4 24.1 66 5.0 W 9 11 5 6 1006.4 1005.0 0.0
03/06:30pm 31.9 35.5 23.7 62 5.7 W 11 19 6 10 1006.3 1004.9 0.0
03/06:00pm 32.2 36.5 24.3 63 5.6 W 9 13 5 7 1005.7 1004.3 0.0
03/05:30pm 32.9 38.4 24.1 60 6.2 NW 2 9 1 5 1005.4 1004.0 0.0
03/05:00pm 33.2 37.4 23.5 56 6.8 NW 7 11 4 6 1005.1 1003.7 0.0
03/04:30pm 33.5 37.7 24.1 58 6.6 WNW 9 15 5 8 1005.0 1003.6 0.0
03/04:00pm 33.2 36.1 23.2 55 7.0 W 13 22 7 12 1005.0 1003.6 0.0
03/03:30pm 33.9 37.1 23.0 53 7.6 NW 11 17 6 9 1005.3 1003.9 0.0
03/03:00pm 33.5 37.5 23.8 57 6.8 NNW 9 17 5 9 1005.4 1004.0 0.0
03/02:30pm 33.8 36.9 22.9 53 7.6 NW 11 20 6 11 1006.0 1004.6 0.0
03/02:00pm 33.9 37.6 23.9 56 7.0 NW 11 20 6 11 1006.4 1005.0 0.0
03/01:30pm 33.6 37.5 24.2 58 6.6 NNW 11 22 6 12 1007.1 1005.7 0.0
03/01:00pm 32.7 35.2 22.5 55 7.0 NNW 13 17 7 9 1007.4 1006.0 0.0
03/12:30pm 32.9 36.2 23.8 58 6.4 WNW 13 20 7 11 1008.1 1006.6 0.0
03/12:00pm 32.7 35.5 23.6 58 6.4 WNW 15 22 8 12 1008.7 1007.2 0.0
03/11:30am 32.3 35.6 23.8 61 6.0 NW 13 19 7 10 1009.3 1007.9 0.0
03/11:00am 31.3 34.7 23.4 63 5.5 NW 11 17 6 9 1009.7 1008.3 0.0
03/10:30am 31.6 35.4 24.0 64 5.3 NW 11 15 6 8 1009.9 1008.5 0.0
03/10:00am 30.6 34.2 23.8 67 4.7 NW 11 17 6 9 1010.2 1008.8 0.0
03/09:30am 29.7 33.6 24.3 73 3.8 NW 11 17 6 9 1010.3 1008.9 0.0
03/09:00am 28.9 33.2 24.2 76 3.3 NW 9 15 5 8 1010.2 1008.8 0.4
03/08:30am 28.5 32.9 25.1 82 2.4 NW 11 22 6 12 1010.2 1008.8 0.4

Other Formats:

Comma delimited format used in spreadsheet applications
http://www.bom.gov.au/fwo/IDQ60801/IDQ60801.94276.axf

JavaScript Object Notation format (JSON) in row-major order
http://www.bom.gov.au/fwo/IDQ60801/IDQ60801.94276.json